Airfield :







YOU CAN JOIN US ON...

 
LOGIN :

Register | Disclaimer

   EN    FR    IT 

 









Legend :    VFR   Marginal VFR   IFR   Intensive IFR   Very Intensive IFR
Visi :
Ceiling :
>= 8 km
>= 3000ft
5 to 8 km
1000 to 3000 ft
1500m to 5 km
500 to 1000 ft
800 to 1500m
200 to 500 ft
< 800m
< 200 ft
Symbols :   Thunderstorms  Fog  Heavy snow  Heavy precipitations  Wind > 20 kt






- Airport Elevation : 30 ft
- IATA code : AZS


MDCY - El Catey Int.

CURRENT METAR :
  • 291900Z 00000KT 9999 FEW018CB FEW018 BKN300 29/25 Q1011 CB/SW/W

EXPIRED METARs :
  • 291800Z 00000KT 9999 FEW018CB SCT018 BKN300 27/25 Q1012 CB/SE/S/W
  • 291700Z 00000KT 9999 FEW016CB SCT016 BKN300 26/25 Q1013 RETSRA CB/NE/N

TAF TAF MDCY
Valid from the 29 at 18:00 until the 30 at 18:00 UTC


291600Z 2918/3018 15008KT 9999 FEW016CB SSCT016
PROB40 2919/3000 7000 -TSRA SCT016CB BKN016 BKN070
MDCS FIR / North America



MET'MAP, your aeronautical weather chart ! - Copyright ORBIFLY December 2007 - Disclaimer

ORBIFLY MET'MAP TEAM :

Programming & Development : Alexandra Zaïnal
Concept & original design : Baudouin d'Aumeries
Assistance for programming : Marc-Olivier Méhu
Technical & hardware support : Manuel Goepfert

Contact : metmap@orbifly.com




SOURCES & CREDITS :

   NOAA